Time;durP1;ratioP1;P1;durP2;ratioP2;P2;SDS_P1;SDS_P2;PMS_P1;PMS_P2;Temp;Humidity;BMP_temperature;BMP_pressure;BME280_temperature;BME280_humidity;BME280_pressure;Samples;Min_cycle;Max_cycle;Signal;HPM_P1;HPM_P2
2023/10/13 00:00:29;;;;;;;;;;;18.20;99.90;;;;;;5076410;28;19909;-76
2023/10/13 00:03:01;;;;;;;;;;;18.20;99.90;;;;;;5076529;28;20392;-77
2023/10/13 00:05:33;;;;;;;;;;;18.20;99.90;;;;;;5076616;28;19999;-75
2023/10/13 00:08:02;;;;;;;;;;;18.20;99.90;;;;;;5077878;28;19909;-75
2023/10/13 00:10:28;;;;;;;;;;;18.20;99.90;;;;;;5076088;28;19916;-75
2023/10/13 00:12:58;;;;;;;;;;;18.20;99.90;;;;;;5075911;28;19997;-76
2023/10/13 00:15:27;;;;;;;;;;;18.20;99.90;;;;;;5075782;28;19908;-76
2023/10/13 00:17:55;;;;;;;;;;;18.10;99.90;;;;;;5076693;28;19916;-76
2023/10/13 00:20:37;;;;;;;;;;;18.00;99.90;;;;;;5077217;28;19962;-75
2023/10/13 00:23:03;;;;;;;;;;;17.90;99.90;;;;;;5077776;28;19926;-76
2023/10/13 00:25:39;;;;;;;;;;;17.80;99.90;;;;;;5076119;28;20284;-75
2023/10/13 00:28:08;;;;;;;;;;;17.70;99.90;;;;;;5076912;28;20372;-75
2023/10/13 00:30:34;;;;;;;;;;;17.60;99.90;;;;;;5077094;28;20407;-75
2023/10/13 00:32:59;;;;;;;;;;;17.50;99.90;;;;;;5075939;28;20277;-77
2023/10/13 00:35:29;;;;;;;;;;;17.50;99.90;;;;;;5077339;28;19951;-75
2023/10/13 00:38:04;;;;;;;;;;;17.40;99.90;;;;;;5076127;28;21538;-75
2023/10/13 00:43:03;;;;;;;;;;;17.50;99.90;;;;;;5076596;28;20451;-76
2023/10/13 00:45:31;;;;;;;;;;;17.50;99.90;;;;;;5077020;28;19908;-75
2023/10/13 00:47:58;;;;;;;;;;;17.50;99.90;;;;;;5078077;28;20406;-75
2023/10/13 00:50:23;;;;;;;;;;;17.40;99.90;;;;;;5075630;28;19912;-75
2023/10/13 00:52:53;;;;;;;;;;;17.40;99.90;;;;;;5076973;28;19919;-75
2023/10/13 00:55:22;;;;;;;;;;;17.40;99.90;;;;;;5076846;28;20364;-76
2023/10/13 00:57:57;;;;;;;;;;;17.30;99.90;;;;;;5074998;28;19908;-75
2023/10/13 01:00:28;;;;;;;;;;;17.30;99.90;;;;;;5075348;28;19931;-75
2023/10/13 01:02:56;;;;;;;;;;;17.40;99.90;;;;;;5065540;28;19908;-75
2023/10/13 01:05:25;;;;;;;;;;;17.30;99.90;;;;;;5076548;28;19947;-76
2023/10/13 01:07:54;;;;;;;;;;;17.40;99.90;;;;;;5075213;28;20361;-77
2023/10/13 01:10:25;;;;;;;;;;;17.40;99.90;;;;;;5074883;28;19987;-76
2023/10/13 01:12:52;;;;;;;;;;;17.40;99.90;;;;;;5076358;28;19914;-75
2023/10/13 01:15:21;;;;;;;;;;;17.50;99.90;;;;;;5076225;28;19908;-75
2023/10/13 01:17:46;;;;;;;;;;;17.50;99.90;;;;;;5076552;28;19930;-75
2023/10/13 01:20:21;;;;;;;;;;;17.60;99.90;;;;;;5076282;28;20399;-75
2023/10/13 01:22:55;;;;;;;;;;;17.50;99.90;;;;;;5076234;28;19909;-75
2023/10/13 01:25:28;;;;;;;;;;;17.60;99.90;;;;;;5074882;28;19916;-75
2023/10/13 01:27:53;;;;;;;;;;;17.60;99.90;;;;;;5066055;28;19939;-75
2023/10/13 01:30:26;;;;;;;;;;;17.60;99.90;;;;;;5075763;28;19916;-75
2023/10/13 01:32:53;;;;;;;;;;;17.50;99.90;;;;;;5075694;28;19974;-75
2023/10/13 01:35:24;;;;;;;;;;;17.50;99.90;;;;;;5075014;28;19971;-75
2023/10/13 01:37:50;;;;;;;;;;;17.40;99.90;;;;;;5075890;28;19917;-74
2023/10/13 01:40:19;;;;;;;;;;;17.50;99.90;;;;;;5076036;28;19912;-75
2023/10/13 01:42:55;;;;;;;;;;;17.50;99.90;;;;;;5074358;28;19909;-75
2023/10/13 01:45:28;;;;;;;;;;;17.50;99.90;;;;;;5075003;28;19916;-75
2023/10/13 01:47:54;;;;;;;;;;;17.50;99.90;;;;;;5075854;28;19931;-75
2023/10/13 01:50:30;;;;;;;;;;;17.50;99.90;;;;;;5074795;28;20288;-74
2023/10/13 01:53:11;;;;;;;;;;;17.40;99.90;;;;;;5074864;28;19908;-76
2023/10/13 01:55:42;;;;;;;;;;;17.30;99.90;;;;;;5076108;28;19919;-74
2023/10/13 01:58:15;;;;;;;;;;;17.30;99.90;;;;;;5075849;28;20004;-75
2023/10/13 02:00:41;;;;;;;;;;;17.30;99.90;;;;;;5075548;28;20006;-75
2023/10/13 02:03:14;;;;;;;;;;;17.40;99.90;;;;;;5074351;28;19912;-75
2023/10/13 02:05:43;;;;;;;;;;;17.30;99.90;;;;;;5076111;28;19908;-75
2023/10/13 02:08:17;;;;;;;;;;;17.20;99.90;;;;;;5074600;28;20441;-75
2023/10/13 02:10:43;;;;;;;;;;;17.10;99.90;;;;;;5075550;28;19916;-75
2023/10/13 02:13:15;;;;;;;;;;;17.10;99.90;;;;;;5074295;28;19908;-75
2023/10/13 02:15:42;;;;;;;;;;;17.00;99.90;;;;;;5076235;28;19930;-75
2023/10/13 02:18:09;;;;;;;;;;;17.10;99.90;;;;;;5075887;28;19920;-75
2023/10/13 02:20:41;;;;;;;;;;;17.10;99.90;;;;;;5074427;28;20363;-74
2023/10/13 02:23:10;;;;;;;;;;;17.00;99.90;;;;;;5075530;28;20023;-75
2023/10/13 02:25:42;;;;;;;;;;;17.00;99.90;;;;;;5074430;28;19909;-75
2023/10/13 02:28:13;;;;;;;;;;;17.10;99.90;;;;;;5074163;28;19912;-75
2023/10/13 02:30:45;;;;;;;;;;;17.10;99.90;;;;;;5075499;28;19912;-75
2023/10/13 02:33:11;;;;;;;;;;;17.10;99.90;;;;;;5075362;28;19931;-74
2023/10/13 02:35:53;;;;;;;;;;;17.10;99.90;;;;;;5074336;28;20003;-74
2023/10/13 02:38:27;;;;;;;;;;;17.10;99.90;;;;;;5075082;28;19917;-74
2023/10/13 02:40:54;;;;;;;;;;;17.10;99.90;;;;;;5077442;28;20021;-75
2023/10/13 02:43:21;;;;;;;;;;;17.20;99.90;;;;;;5077915;28;19916;-75
2023/10/13 02:45:58;;;;;;;;;;;17.10;99.90;;;;;;5077906;28;19908;-75
2023/10/13 02:48:25;;;;;;;;;;;17.10;99.90;;;;;;5084822;28;19928;-75
2023/10/13 02:51:06;;;;;;;;;;;17.20;99.90;;;;;;5079142;28;19917;-75
2023/10/13 02:53:32;;;;;;;;;;;17.20;99.90;;;;;;5079164;28;19959;-75
2023/10/13 02:56:05;;;;;;;;;;;17.20;99.90;;;;;;5078774;28;20379;-75
2023/10/13 02:58:37;;;;;;;;;;;17.20;99.90;;;;;;5079142;28;19908;-75
2023/10/13 03:01:16;;;;;;;;;;;17.30;99.90;;;;;;5078663;28;19923;-74
2023/10/13 03:03:54;;;;;;;;;;;17.30;99.90;;;;;;5078822;28;20340;-74
2023/10/13 03:06:23;;;;;;;;;;;17.30;99.90;;;;;;5068745;28;19963;-75
2023/10/13 03:08:48;;;;;;;;;;;17.30;99.90;;;;;;5077336;28;19919;-75
2023/10/13 03:11:14;;;;;;;;;;;17.30;99.90;;;;;;5078330;28;20383;-75
2023/10/13 03:13:45;;;;;;;;;;;17.30;99.90;;;;;;5078623;28;19908;-74
2023/10/13 03:16:11;;;;;;;;;;;17.30;99.90;;;;;;5078569;28;20372;-75
2023/10/13 03:18:38;;;;;;;;;;;17.30;99.90;;;;;;5078656;28;19909;-74
2023/10/13 03:21:03;;;;;;;;;;;17.40;99.90;;;;;;5077133;28;19935;-74
2023/10/13 03:23:45;;;;;;;;;;;17.50;99.90;;;;;;5078724;28;19916;-75
2023/10/13 03:26:10;;;;;;;;;;;17.50;99.90;;;;;;5072753;28;19908;-74
2023/10/13 03:28:37;;;;;;;;;;;17.60;99.90;;;;;;5078326;28;19947;-76
2023/10/13 03:31:03;;;;;;;;;;;17.60;99.90;;;;;;5076688;28;19924;-75
2023/10/13 03:33:32;;;;;;;;;;;17.60;99.90;;;;;;5078384;28;19912;-76
2023/10/13 03:36:05;;;;;;;;;;;17.60;99.90;;;;;;5078388;28;20324;-75
2023/10/13 03:38:36;;;;;;;;;;;17.60;99.90;;;;;;5076680;28;19908;-74
2023/10/13 03:41:12;;;;;;;;;;;17.60;99.90;;;;;;5078314;28;19908;-75
2023/10/13 03:44:07;;;;;;;;;;;17.60;99.90;;;;;;5078122;28;19923;-75
2023/10/13 03:46:36;;;;;;;;;;;17.60;99.90;;;;;;5077810;28;19916;-75
2023/10/13 03:49:02;;;;;;;;;;;17.70;99.90;;;;;;5076525;28;19909;-74
2023/10/13 03:51:31;;;;;;;;;;;17.70;99.90;;;;;;5077224;28;19912;-75
2023/10/13 03:53:56;;;;;;;;;;;17.80;99.90;;;;;;5077732;28;19908;-75
2023/10/13 03:56:26;;;;;;;;;;;17.70;99.90;;;;;;5078200;28;20113;-73
2023/10/13 03:58:53;;;;;;;;;;;17.70;99.90;;;;;;5077743;28;20297;-74
2023/10/13 04:01:25;;;;;;;;;;;17.70;99.90;;;;;;5077843;28;19912;-75
2023/10/13 04:03:57;;;;;;;;;;;17.70;99.90;;;;;;5077617;28;20428;-74
2023/10/13 04:06:48;;;;;;;;;;;17.70;99.90;;;;;;5077835;28;20584;-74
2023/10/13 04:17:15;;;;;;;;;;;17.60;99.90;;;;;;5077095;28;19974;-74
2023/10/13 04:23:17;;;;;;;;;;;17.60;99.90;;;;;;5068154;28;19920;-74
2023/10/13 04:25:38;;;;;;;;;;;17.70;99.90;;;;;;5077168;28;20384;-74
2023/10/13 04:28:35;;;;;;;;;;;17.70;99.90;;;;;;5076844;28;19912;-73
2023/10/13 04:31:11;;;;;;;;;;;17.80;99.90;;;;;;5086237;28;20392;-74
2023/10/13 04:33:51;;;;;;;;;;;17.80;99.90;;;;;;5075969;28;19962;-74
2023/10/13 04:36:36;;;;;;;;;;;17.90;99.90;;;;;;5076923;28;19920;-75
2023/10/13 04:41:39;;;;;;;;;;;17.90;99.90;;;;;;5076958;28;19920;-74
2023/10/13 04:50:22;;;;;;;;;;;17.90;99.90;;;;;;5077116;28;19963;-75
2023/10/13 05:03:17;;;;;;;;;;;18.00;99.90;;;;;;5076411;28;20065;-75
2023/10/13 05:44:37;;;;;;;;;;;18.00;99.90;;;;;;5075305;28;19978;-74
2023/10/13 05:49:53;;;;;;;;;;;18.00;99.90;;;;;;5064183;28;19958;-74
2023/10/13 06:30:56;;;;;;;;;;;18.80;99.90;;;;;;5079290;28;20493;-77
2023/10/13 06:33:28;;;;;;;;;;;18.80;99.90;;;;;;5078427;28;19936;-76
2023/10/13 06:35:57;;;;;;;;;;;18.80;99.90;;;;;;5079428;28;19908;-76
2023/10/13 06:38:23;;;;;;;;;;;18.90;99.90;;;;;;5077925;28;19912;-75
2023/10/13 06:40:50;;;;;;;;;;;19.00;99.90;;;;;;5079302;28;19914;-74
2023/10/13 06:43:17;;;;;;;;;;;19.10;99.90;;;;;;5079634;28;19959;-75
2023/10/13 06:45:43;;;;;;;;;;;19.00;99.90;;;;;;5079813;28;19958;-77
2023/10/13 06:48:14;;;;;;;;;;;19.10;99.90;;;;;;5079039;28;19908;-76
2023/10/13 06:50:41;;;;;;;;;;;19.10;99.90;;;;;;5079189;28;19913;-76
2023/10/13 06:53:07;;;;;;;;;;;19.20;99.90;;;;;;5079008;28;20346;-75
2023/10/13 06:55:36;;;;;;;;;;;19.20;99.90;;;;;;5079154;28;19920;-77
2023/10/13 06:58:02;;;;;;;;;;;19.30;99.90;;;;;;5078546;28;19959;-76
2023/10/13 07:00:29;;;;;;;;;;;19.30;99.90;;;;;;5078472;28;19909;-76
2023/10/13 07:03:05;;;;;;;;;;;19.30;99.90;;;;;;5074091;28;19920;-77
2023/10/13 07:05:37;;;;;;;;;;;19.30;99.90;;;;;;5077264;28;19942;-75
2023/10/13 07:08:04;;;;;;;;;;;19.30;99.90;;;;;;5079012;28;19912;-78
2023/10/13 07:10:30;;;;;;;;;;;19.30;99.90;;;;;;5078552;28;19919;-77
2023/10/13 07:12:59;;;;;;;;;;;19.40;99.90;;;;;;5078499;28;19913;-77
2023/10/13 07:15:27;;;;;;;;;;;19.40;99.90;;;;;;5078663;28;19909;-76
2023/10/13 07:17:59;;;;;;;;;;;19.50;99.90;;;;;;5078745;28;19908;-76
2023/10/13 07:23:02;;;;;;;;;;;19.60;99.90;;;;;;5078372;28;19912;-74
2023/10/13 07:25:32;;;;;;;;;;;19.70;99.90;;;;;;5078655;28;19909;-76
2023/10/13 07:27:59;;;;;;;;;;;19.70;99.90;;;;;;5078207;28;19916;-76
2023/10/13 07:30:26;;;;;;;;;;;19.80;99.90;;;;;;5078442;28;19912;-76
2023/10/13 07:32:53;;;;;;;;;;;19.90;99.90;;;;;;5076898;28;19924;-75
2023/10/13 07:35:26;;;;;;;;;;;20.00;99.90;;;;;;5078586;28;19912;-78
2023/10/13 07:37:53;;;;;;;;;;;20.00;99.90;;;;;;5078114;28;19912;-77
2023/10/13 07:40:39;;;;;;;;;;;20.10;99.90;;;;;;5078504;28;19909;-76
2023/10/13 07:43:08;;;;;;;;;;;20.10;99.90;;;;;;5076467;28;19958;-74
2023/10/13 07:45:36;;;;;;;;;;;20.20;99.90;;;;;;5078121;28;20323;-76
2023/10/13 07:48:12;;;;;;;;;;;20.30;99.90;;;;;;5078012;28;19916;-76
2023/10/13 07:50:41;;;;;;;;;;;20.30;99.90;;;;;;5076704;28;19917;-74
2023/10/13 07:53:19;;;;;;;;;;;20.30;99.90;;;;;;5078022;28;20038;-75
2023/10/13 07:55:46;;;;;;;;;;;20.20;99.90;;;;;;5078083;28;19908;-76
2023/10/13 07:58:13;;;;;;;;;;;20.30;99.90;;;;;;5077648;28;20311;-76
2023/10/13 08:05:58;;;;;;;;;;;20.40;99.90;;;;;;5076262;28;19908;-78
2023/10/13 08:08:34;;;;;;;;;;;20.50;99.90;;;;;;5070413;28;20375;-75
2023/10/13 08:11:08;;;;;;;;;;;20.50;99.90;;;;;;5076060;28;19959;-76
2023/10/13 08:13:36;;;;;;;;;;;20.50;99.90;;;;;;5074518;28;19913;-75
2023/10/13 08:16:09;;;;;;;;;;;20.60;99.90;;;;;;5075658;28;20415;-75
2023/10/13 08:18:35;;;;;;;;;;;20.70;99.90;;;;;;5076090;28;19935;-75
2023/10/13 08:21:05;;;;;;;;;;;20.70;99.90;;;;;;5076088;28;19935;-76
2023/10/13 08:23:57;;;;;;;;;;;20.80;99.90;;;;;;5077394;28;19915;-75
2023/10/13 08:34:38;;;;;;;;;;;21.20;99.90;;;;;;5077445;28;19955;-77
2023/10/13 08:37:19;;;;;;;;;;;21.50;99.90;;;;;;5077274;28;19936;-77
2023/10/13 08:45:53;;;;;;;;;;;21.80;99.90;;;;;;5061964;28;20269;-76
2023/10/13 08:48:08;;;;;;;;;;;21.80;99.90;;;;;;5076670;28;20303;-77
2023/10/13 08:56:15;;;;;;;;;;;21.90;99.90;;;;;;5076998;28;20330;-76
2023/10/13 09:06:47;;;;;;;;;;;22.10;99.90;;;;;;5076899;28;19913;-76
2023/10/13 09:09:42;;;;;;;;;;;22.30;99.90;;;;;;5075110;28;19915;-74
2023/10/13 09:12:11;;;;;;;;;;;22.30;99.90;;;;;;5075900;28;20293;-77
2023/10/13 09:14:56;;;;;;;;;;;22.30;99.90;;;;;;5076350;28;19909;-77
2023/10/13 09:17:38;;;;;;;;;;;22.20;99.90;;;;;;5074900;28;19980;-77
2023/10/13 09:25:36;;;;;;;;;;;22.30;99.90;;;;;;5076154;28;19917;-77
2023/10/13 09:28:14;;;;;;;;;;;22.50;99.90;;;;;;5076320;28;20411;-76
2023/10/13 09:30:46;;;;;;;;;;;22.50;99.90;;;;;;5075729;28;19916;-76
2023/10/13 09:33:20;;;;;;;;;;;22.40;99.90;;;;;;5075981;28;20461;-77
2023/10/13 09:35:49;;;;;;;;;;;22.60;99.90;;;;;;5069293;28;19967;-77
2023/10/13 09:38:15;;;;;;;;;;;22.70;99.90;;;;;;5076052;28;19909;-75
2023/10/13 09:40:46;;;;;;;;;;;22.80;99.90;;;;;;5076349;28;19962;-78
2023/10/13 09:43:15;;;;;;;;;;;23.00;99.90;;;;;;5074545;28;19909;-76
2023/10/13 09:45:43;;;;;;;;;;;23.20;99.90;;;;;;5075920;28;19951;-76
2023/10/13 09:48:22;;;;;;;;;;;23.10;99.90;;;;;;5076046;28;20010;-76
2023/10/13 09:50:48;;;;;;;;;;;23.10;99.90;;;;;;5074063;28;19913;-78
2023/10/13 09:53:18;;;;;;;;;;;23.00;99.90;;;;;;5073554;28;20003;-76
2023/10/13 09:55:48;;;;;;;;;;;23.00;99.90;;;;;;5072648;28;19909;-77
2023/10/13 09:58:15;;;;;;;;;;;23.10;99.90;;;;;;5072646;28;19913;-78
2023/10/13 10:00:49;;;;;;;;;;;23.10;99.90;;;;;;5072720;28;19909;-78
2023/10/13 10:03:15;;;;;;;;;;;23.10;99.90;;;;;;5072533;28;19916;-75
2023/10/13 10:05:49;;;;;;;;;;;23.10;99.90;;;;;;5073789;28;20026;-77
2023/10/13 10:08:23;;;;;;;;;;;23.30;99.90;;;;;;5066897;28;19927;-75
2023/10/13 10:10:59;;;;;;;;;;;23.50;99.90;;;;;;5068876;28;19919;-76
2023/10/13 10:13:34;;;;;;;;;;;23.70;99.90;;;;;;5075358;28;20332;-77
2023/10/13 10:16:03;;;;;;;;;;;23.80;99.90;;;;;;5073563;28;19959;-75
2023/10/13 10:18:28;;;;;;;;;;;24.00;99.90;;;;;;5075412;28;19908;-78
2023/10/13 10:21:13;;;;;;;;;;;24.00;99.90;;;;;;5076478;28;19915;-77
2023/10/13 10:23:44;;;;;;;;;;;24.10;99.90;;;;;;5075656;28;19908;-78
2023/10/13 10:26:24;;;;;;;;;;;24.20;99.90;;;;;;5074361;28;20391;-77
2023/10/13 10:28:50;;;;;;;;;;;24.10;99.90;;;;;;5074226;28;19916;-76
2023/10/13 10:31:19;;;;;;;;;;;23.90;99.90;;;;;;5074809;28;19927;-77
2023/10/13 10:33:50;;;;;;;;;;;23.90;99.90;;;;;;5075738;28;19962;-77
2023/10/13 10:36:16;;;;;;;;;;;23.80;99.90;;;;;;5071334;28;19909;-76
2023/10/13 10:38:58;;;;;;;;;;;23.80;99.90;;;;;;5075521;28;19961;-76
2023/10/13 10:42:17;;;;;;;;;;;23.90;99.90;;;;;;5075056;28;20291;-77
2023/10/13 10:44:16;;;;;;;;;;;24.00;99.90;;;;;;5071007;28;19970;-75
2023/10/13 10:46:51;;;;;;;;;;;24.00;99.90;;;;;;5075395;28;19917;-77
2023/10/13 10:49:29;;;;;;;;;;;24.10;99.90;;;;;;5073069;28;19908;-78
2023/10/13 10:51:58;;;;;;;;;;;24.10;99.90;;;;;;5075783;28;19938;-76
2023/10/13 10:54:29;;;;;;;;;;;24.10;99.90;;;;;;5076190;28;19924;-81
2023/10/13 10:56:55;;;;;;;;;;;24.10;99.90;;;;;;5076103;28;19999;-76
2023/10/13 10:59:24;;;;;;;;;;;24.10;99.90;;;;;;5075186;28;19955;-76
2023/10/13 11:01:53;;;;;;;;;;;24.10;99.90;;;;;;5077346;28;20000;-76
2023/10/13 11:04:24;;;;;;;;;;;24.20;99.90;;;;;;5078948;28;20408;-76
2023/10/13 11:06:56;;;;;;;;;;;24.40;99.90;;;;;;5079070;28;19916;-76
2023/10/13 11:09:32;;;;;;;;;;;24.40;99.90;;;;;;5079063;28;20430;-77
2023/10/13 11:12:13;;;;;;;;;;;24.50;99.90;;;;;;5078509;28;20833;-79
2023/10/13 11:14:39;;;;;;;;;;;24.60;99.90;;;;;;5078873;28;19912;-77
2023/10/13 11:17:13;;;;;;;;;;;24.80;99.90;;;;;;5078684;28;19908;-78
2023/10/13 11:19:40;;;;;;;;;;;24.80;99.90;;;;;;5079577;28;19935;-78
2023/10/13 11:25:11;;;;;;;;;;;24.80;99.90;;;;;;5077618;28;20004;-77
2023/10/13 11:27:55;;;;;;;;;;;24.90;99.90;;;;;;5078324;28;19912;-77
2023/10/13 11:30:25;;;;;;;;;;;25.00;99.90;;;;;;5077566;28;19920;-76
2023/10/13 11:33:03;;;;;;;;;;;25.00;99.90;;;;;;5078289;28;19970;-77
2023/10/13 11:38:14;;;;;;;;;;;25.00;99.90;;;;;;5078149;28;20025;-76
2023/10/13 11:43:24;;;;;;;;;;;25.00;99.90;;;;;;5067306;28;20399;-75
2023/10/13 11:46:12;;;;;;;;;;;25.20;99.90;;;;;;5076599;28;19916;-78
2023/10/13 11:48:41;;;;;;;;;;;25.30;99.90;;;;;;5078024;28;19944;-76
2023/10/13 11:51:08;;;;;;;;;;;25.30;99.90;;;;;;5077988;28;20376;-76
2023/10/13 11:53:35;;;;;;;;;;;25.20;99.90;;;;;;5079163;28;20706;-76
2023/10/13 11:56:08;;;;;;;;;;;25.00;99.90;;;;;;5078703;28;19913;-77
2023/10/13 11:58:35;;;;;;;;;;;24.80;99.90;;;;;;5076865;28;20016;-76
2023/10/13 12:11:42;;;;;;;;;;;24.90;99.90;;;;;;5072699;28;20003;-77
2023/10/13 12:14:19;;;;;;;;;;;25.10;99.90;;;;;;5075789;28;19909;-77
2023/10/13 12:16:51;;;;;;;;;;;25.30;99.90;;;;;;5077757;28;20376;-77
2023/10/13 12:19:17;;;;;;;;;;;25.40;99.90;;;;;;5077681;28;19909;-77
2023/10/13 12:21:43;;;;;;;;;;;25.40;99.90;;;;;;5077766;28;19919;-77
2023/10/13 12:24:21;;;;;;;;;;;25.30;99.90;;;;;;5076157;28;19909;-75
2023/10/13 12:26:47;;;;;;;;;;;25.30;99.90;;;;;;5077286;28;19920;-76
2023/10/13 12:29:22;;;;;;;;;;;25.30;99.90;;;;;;5077570;28;19908;-77
2023/10/13 12:32:01;;;;;;;;;;;25.40;99.90;;;;;;5077131;28;19927;-78
2023/10/13 12:34:57;;;;;;;;;;;25.50;99.90;;;;;;5076828;28;20081;-77
2023/10/13 12:37:38;;;;;;;;;;;25.60;99.90;;;;;;5076697;28;19912;-79
2023/10/13 12:51:07;;;;;;;;;;;25.80;99.90;;;;;;5076653;28;19918;-77
2023/10/13 12:53:33;;;;;;;;;;;26.00;99.90;;;;;;5076854;28;19984;-78
2023/10/13 12:55:59;;;;;;;;;;;26.00;99.90;;;;;;5076853;28;20421;-77
2023/10/13 12:58:26;;;;;;;;;;;26.00;99.90;;;;;;5076497;28;19916;-80
2023/10/13 13:01:01;;;;;;;;;;;25.80;99.90;;;;;;5076979;28;19912;-80
2023/10/13 13:03:29;;;;;;;;;;;25.90;99.90;;;;;;5074144;28;19954;-77
2023/10/13 13:05:55;;;;;;;;;;;25.80;99.90;;;;;;5073617;28;19913;-79
2023/10/13 13:08:24;;;;;;;;;;;25.90;99.90;;;;;;5073830;28;19915;-78
2023/10/13 13:10:50;;;;;;;;;;;25.80;99.90;;;;;;5074932;28;20300;-79
2023/10/13 13:13:17;;;;;;;;;;;25.80;99.90;;;;;;5076312;28;19987;-77
2023/10/13 13:15:42;;;;;;;;;;;25.70;99.90;;;;;;5076506;28;19912;-77
2023/10/13 13:18:11;;;;;;;;;;;25.70;99.90;;;;;;5076360;28;19912;-77
2023/10/13 13:20:39;;;;;;;;;;;25.60;99.90;;;;;;5076320;28;20327;-76
2023/10/13 13:23:05;;;;;;;;;;;25.60;99.90;;;;;;5076563;28;19920;-77
2023/10/13 13:25:31;;;;;;;;;;;25.60;99.90;;;;;;5075071;28;19909;-79
2023/10/13 13:27:57;;;;;;;;;;;25.80;99.90;;;;;;5074899;28;19908;-76
2023/10/13 13:30:33;;;;;;;;;;;26.00;99.90;;;;;;5076557;28;19920;-77
2023/10/13 13:33:03;;;;;;;;;;;26.30;99.90;;;;;;5076753;28;19924;-77
2023/10/13 13:35:34;;;;;;;;;;;26.50;99.90;;;;;;5067202;28;19912;-78
2023/10/13 13:38:09;;;;;;;;;;;26.50;99.90;;;;;;5076409;28;19999;-78
2023/10/13 13:40:38;;;;;;;;;;;26.50;99.90;;;;;;5075303;28;19916;-77
2023/10/13 13:43:04;;;;;;;;;;;26.60;99.90;;;;;;5075996;28;19916;-79
2023/10/13 13:45:32;;;;;;;;;;;26.60;99.90;;;;;;5074693;28;19932;-78
2023/10/13 13:47:57;;;;;;;;;;;26.70;99.90;;;;;;5076467;28;19909;-79
2023/10/13 13:50:28;;;;;;;;;;;26.70;99.90;;;;;;5075941;28;19927;-78
2023/10/13 13:52:56;;;;;;;;;;;26.60;99.90;;;;;;5076021;28;20288;-78
2023/10/13 13:55:28;;;;;;;;;;;26.50;99.90;;;;;;5075951;28;19908;-79
2023/10/13 13:57:57;;;;;;;;;;;26.60;99.90;;;;;;5074688;28;19970;-77
2023/10/13 14:00:38;;;;;;;;;;;26.50;99.90;;;;;;5075748;28;19909;-78
2023/10/13 14:03:05;;;;;;;;;;;26.30;99.90;;;;;;5075573;28;20003;-79
2023/10/13 14:05:31;;;;;;;;;;;26.30;99.90;;;;;;5075515;28;20369;-79
2023/10/13 14:07:56;;;;;;;;;;;26.10;99.90;;;;;;5074695;28;20030;-78
2023/10/13 14:10:31;;;;;;;;;;;26.00;99.90;;;;;;5074305;28;19918;-78
2023/10/13 14:13:06;;;;;;;;;;;26.10;99.90;;;;;;5074420;28;19916;-77
2023/10/13 14:15:40;;;;;;;;;;;26.10;99.90;;;;;;5076802;28;19909;-79
2023/10/13 14:18:07;;;;;;;;;;;26.20;99.90;;;;;;5076223;28;19909;-79
2023/10/13 14:20:39;;;;;;;;;;;26.20;99.90;;;;;;5075554;28;19951;-79
2023/10/13 14:23:07;;;;;;;;;;;26.30;99.90;;;;;;5075558;28;19923;-80
2023/10/13 14:25:37;;;;;;;;;;;26.30;99.90;;;;;;5076132;28;19995;-80
2023/10/13 14:28:04;;;;;;;;;;;26.30;99.90;;;;;;5074296;28;19927;-78
2023/10/13 14:30:31;;;;;;;;;;;26.30;99.90;;;;;;5075643;28;19958;-78
2023/10/13 14:32:58;;;;;;;;;;;26.40;99.90;;;;;;5076199;28;19913;-79
2023/10/13 14:35:25;;;;;;;;;;;26.40;99.90;;;;;;5077173;28;19916;-79
2023/10/13 14:37:51;;;;;;;;;;;26.30;99.90;;;;;;5079315;28;19920;-79
2023/10/13 14:40:21;;;;;;;;;;;26.20;99.90;;;;;;5079659;28;20319;-76
2023/10/13 14:42:47;;;;;;;;;;;26.10;99.90;;;;;;5078849;28;19970;-76
2023/10/13 14:45:13;;;;;;;;;;;26.00;99.90;;;;;;5077882;28;20495;-79
2023/10/13 14:47:42;;;;;;;;;;;25.90;99.90;;;;;;5079108;28;19973;-78
2023/10/13 14:50:17;;;;;;;;;;;25.60;99.90;;;;;;5077778;28;20050;-79
2023/10/13 14:52:43;;;;;;;;;;;25.40;99.90;;;;;;5078222;28;19916;-78
2023/10/13 14:55:18;;;;;;;;;;;25.40;99.90;;;;;;5077956;28;19912;-80
2023/10/13 14:57:50;;;;;;;;;;;25.30;99.90;;;;;;5079263;28;19909;-79
2023/10/13 15:00:24;;;;;;;;;;;25.30;99.90;;;;;;5077503;28;19962;-80
2023/10/13 15:02:49;;;;;;;;;;;25.30;99.90;;;;;;5077694;28;19908;-79
2023/10/13 15:05:16;;;;;;;;;;;25.20;99.90;;;;;;5078483;28;19920;-79
2023/10/13 15:07:45;;;;;;;;;;;25.20;99.90;;;;;;5077669;28;19913;-79
2023/10/13 15:10:14;;;;;;;;;;;25.10;99.90;;;;;;5078650;28;19935;-78
2023/10/13 15:12:40;;;;;;;;;;;25.20;99.90;;;;;;5078828;28;19909;-79
2023/10/13 15:15:13;;;;;;;;;;;25.10;99.90;;;;;;5078240;28;19934;-79
2023/10/13 15:17:39;;;;;;;;;;;25.10;99.90;;;;;;5078895;28;19917;-79
2023/10/13 15:20:08;;;;;;;;;;;25.10;99.90;;;;;;5073178;28;19996;-78
2023/10/13 15:22:34;;;;;;;;;;;25.10;99.90;;;;;;5076963;28;19912;-80
2023/10/13 15:25:20;;;;;;;;;;;25.00;99.90;;;;;;5077558;28;20367;-79
2023/10/13 15:27:55;;;;;;;;;;;24.90;99.90;;;;;;5077531;28;20019;-81
2023/10/13 15:30:25;;;;;;;;;;;24.90;99.90;;;;;;5073291;28;19981;-81
2023/10/13 15:32:53;;;;;;;;;;;24.80;99.90;;;;;;5076604;28;19924;-80
2023/10/13 15:35:19;;;;;;;;;;;24.70;99.90;;;;;;5077622;28;20296;-80
2023/10/13 15:37:47;;;;;;;;;;;24.60;99.90;;;;;;5075664;28;19908;-78
2023/10/13 15:40:15;;;;;;;;;;;24.60;99.90;;;;;;5076957;28;19919;-79
2023/10/13 15:42:44;;;;;;;;;;;24.50;99.90;;;;;;5076157;28;19915;-77
2023/10/13 15:45:16;;;;;;;;;;;24.40;99.90;;;;;;5077103;28;19939;-77
2023/10/13 15:47:45;;;;;;;;;;;24.40;99.90;;;;;;5077241;28;20440;-79
2023/10/13 15:50:15;;;;;;;;;;;24.40;99.90;;;;;;5075312;28;19947;-80
2023/10/13 15:52:45;;;;;;;;;;;24.30;99.90;;;;;;5076919;28;19916;-79
2023/10/13 15:55:14;;;;;;;;;;;24.30;99.90;;;;;;5077244;28;20285;-77
2023/10/13 15:57:43;;;;;;;;;;;24.20;99.90;;;;;;5075455;28;19908;-78
2023/10/13 16:00:25;;;;;;;;;;;24.20;99.90;;;;;;5076077;28;20270;-79
2023/10/13 16:02:55;;;;;;;;;;;24.10;99.90;;;;;;5076723;28;19971;-76
2023/10/13 16:05:34;;;;;;;;;;;24.10;99.90;;;;;;5076968;28;19994;-81
2023/10/13 16:08:00;;;;;;;;;;;24.00;99.90;;;;;;5074124;28;19909;-79
2023/10/13 16:10:26;;;;;;;;;;;23.90;99.90;;;;;;5076605;28;19912;-80
2023/10/13 16:12:53;;;;;;;;;;;23.90;99.90;;;;;;5072972;28;19908;-79
2023/10/13 16:15:21;;;;;;;;;;;23.90;99.90;;;;;;5076465;28;19959;-79
2023/10/13 16:17:47;;;;;;;;;;;23.80;99.90;;;;;;5076521;28;20319;-78
2023/10/13 16:20:18;;;;;;;;;;;23.70;99.90;;;;;;5076264;28;19922;-78
2023/10/13 16:22:44;;;;;;;;;;;23.60;99.90;;;;;;5076459;28;20011;-80
2023/10/13 16:25:13;;;;;;;;;;;23.70;99.90;;;;;;5076427;28;20022;-77
2023/10/13 16:27:42;;;;;;;;;;;23.60;99.90;;;;;;5076108;28;19916;-76
2023/10/13 16:30:09;;;;;;;;;;;23.50;99.90;;;;;;5074019;28;19956;-77
2023/10/13 16:32:35;;;;;;;;;;;23.50;99.90;;;;;;5074718;28;20386;-79
2023/10/13 16:35:04;;;;;;;;;;;23.30;99.90;;;;;;5076314;28;19908;-80
2023/10/13 16:37:30;;;;;;;;;;;23.30;99.90;;;;;;5075869;28;19916;-78
2023/10/13 16:40:04;;;;;;;;;;;23.20;99.90;;;;;;5075242;28;19908;-80
2023/10/13 16:42:33;;;;;;;;;;;23.00;99.90;;;;;;5072400;28;19912;-78
2023/10/13 16:45:14;;;;;;;;;;;23.10;99.90;;;;;;5074566;28;19946;-80
2023/10/13 16:47:43;;;;;;;;;;;23.00;99.90;;;;;;5073468;28;19919;-80
2023/10/13 16:50:11;;;;;;;;;;;23.00;99.90;;;;;;5075051;28;20060;-79
2023/10/13 16:52:37;;;;;;;;;;;23.00;99.90;;;;;;5074607;28;19913;-80
2023/10/13 16:55:04;;;;;;;;;;;23.00;99.90;;;;;;5076009;28;20362;-78
2023/10/13 16:57:30;;;;;;;;;;;22.90;99.90;;;;;;5070475;28;19952;-78
2023/10/13 16:59:55;;;;;;;;;;;22.80;99.90;;;;;;5074372;28;19912;-78
2023/10/13 17:02:21;;;;;;;;;;;22.80;99.90;;;;;;5075391;28;19908;-79
2023/10/13 17:04:47;;;;;;;;;;;22.70;99.90;;;;;;5075845;28;19920;-79
2023/10/13 17:07:15;;;;;;;;;;;22.70;99.90;;;;;;5075284;28;20368;-81
2023/10/13 17:09:41;;;;;;;;;;;22.70;99.90;;;;;;5074695;28;19915;-77
2023/10/13 17:12:10;;;;;;;;;;;22.60;99.90;;;;;;5074773;28;19912;-77
2023/10/13 17:14:35;;;;;;;;;;;22.60;99.90;;;;;;5075415;28;19913;-77
2023/10/13 17:17:01;;;;;;;;;;;22.60;99.90;;;;;;5075326;28;20410;-78
2023/10/13 17:19:26;;;;;;;;;;;22.60;99.90;;;;;;5073232;28;20052;-78
2023/10/13 17:21:52;;;;;;;;;;;22.50;99.90;;;;;;5074686;28;19974;-79
2023/10/13 17:24:19;;;;;;;;;;;22.50;99.90;;;;;;5074330;28;19958;-79
2023/10/13 17:26:49;;;;;;;;;;;22.50;99.90;;;;;;5075013;28;19971;-77
2023/10/13 17:29:15;;;;;;;;;;;22.40;99.90;;;;;;5072788;28;19912;-78
2023/10/13 17:31:41;;;;;;;;;;;22.40;99.90;;;;;;5074702;28;20404;-77
2023/10/13 17:34:06;;;;;;;;;;;22.40;99.90;;;;;;5075148;28;19951;-78
2023/10/13 17:36:32;;;;;;;;;;;22.30;99.90;;;;;;5075022;28;19915;-77
2023/10/13 17:38:58;;;;;;;;;;;22.30;99.90;;;;;;5074647;28;19995;-76